Upstream stations:
Downstream station:
SHEF ID: QUAO2 Spring River near Quapaw, OK
STATION TYPE:
Regulating: Stage = 20.00, Flow = 33676
PRECIP STAGE STAGE(2) RIV-FLOW BAT-LOAD
in ft ft cfs volt
Ccp-Rev Ccp-Rev Ccp-Rev Ccp-Rev Ccp-Rev
(US/Central)
03/21 00:00 0.00 6.90 6.99 1199 12.00
03/21 01:00 0.00 6.90 7.00 1199 11.99
03/21 02:00 0.00 6.90 7.00 1199 12.06
03/21 03:00 0.00 6.90 7.00 1199 12.06
03/21 04:00 0.00 6.89 7.00 1189 11.96
03/21 05:00 0.00 6.90 7.00 1199 12.08
03/21 06:00 0.00 6.88 7.00 1179 12.09
03/21 07:00 0.00 6.89 6.99 1189 11.98
03/21 08:00 0.00 6.89 6.99 1189 12.04
03/21 09:00 0.00 6.89 6.99 1189 12.00
03/21 10:00 0.00 6.89 6.92 1189 12.49
03/21 11:00 0.00 6.89 6.92 1189 12.48
03/21 12:00 0.03 6.88 6.98 1179 12.21
03/21 13:00 0.00 6.87 6.98 1169 12.60
03/21 14:00 0.02 6.88 6.97 1179 12.70
03/21 15:00 0.10 6.88 6.95 1179 12.28
03/21 16:00 0.25 6.89 6.92 1189 12.13
03/21 17:00 0.34 6.93 6.91 1229 12.07
03/21 18:00 0.13 6.95 7.00 1249 12.03
03/21 19:00 0.01 6.96 6.99 1260 12.06
03/21 20:00 0.00 7.04 7.01 1343 11.98
03/21 21:00 0.01 7.11 7.09 1419 11.98
03/21 22:00 0.24 7.22 7.18 1542 11.91
03/21 23:00 0.12 7.34 7.32 1684 11.85